sensor_id;sensor_type;location;lat;lon;timestamp;temperature;humidity
43581;DHT22;29175;51.030;4.606;2022-10-22T00:01:33;15.50;99.90
43581;DHT22;29175;51.030;4.606;2022-10-22T00:04:00;15.60;99.90
43581;DHT22;29175;51.030;4.606;2022-10-22T00:06:25;15.70;99.90
43581;DHT22;29175;51.030;4.606;2022-10-22T00:08:51;15.60;99.90
43581;DHT22;29175;51.030;4.606;2022-10-22T00:11:18;15.60;99.90
43581;DHT22;29175;51.030;4.606;2022-10-22T00:13:44;15.50;99.90
43581;DHT22;29175;51.030;4.606;2022-10-22T00:16:10;15.50;99.90
43581;DHT22;29175;51.030;4.606;2022-10-22T00:18:38;15.50;99.90
43581;DHT22;29175;51.030;4.606;2022-10-22T00:21:04;15.50;99.90
43581;DHT22;29175;51.030;4.606;2022-10-22T00:23:30;15.50;99.90
43581;DHT22;29175;51.030;4.606;2022-10-22T00:25:56;15.50;99.90
43581;DHT22;29175;51.030;4.606;2022-10-22T00:28:22;15.50;99.90
43581;DHT22;29175;51.030;4.606;2022-10-22T00:30:53;15.50;99.90
43581;DHT22;29175;51.030;4.606;2022-10-22T00:33:19;15.50;99.90
43581;DHT22;29175;51.030;4.606;2022-10-22T00:35:46;15.50;99.90
43581;DHT22;29175;51.030;4.606;2022-10-22T00:38:11;15.50;99.90
43581;DHT22;29175;51.030;4.606;2022-10-22T00:40:37;15.50;99.90
43581;DHT22;29175;51.030;4.606;2022-10-22T00:43:02;15.40;99.90
43581;DHT22;29175;51.030;4.606;2022-10-22T00:45:28;15.40;99.90
43581;DHT22;29175;51.030;4.606;2022-10-22T00:48:00;15.40;99.90
43581;DHT22;29175;51.030;4.606;2022-10-22T00:50:34;15.40;99.90
43581;DHT22;29175;51.030;4.606;2022-10-22T00:53:03;15.40;99.90
43581;DHT22;29175;51.030;4.606;2022-10-22T00:55:32;15.30;99.90
43581;DHT22;29175;51.030;4.606;2022-10-22T00:57:59;15.30;99.90
43581;DHT22;29175;51.030;4.606;2022-10-22T01:00:26;15.30;99.90
43581;DHT22;29175;51.030;4.606;2022-10-22T01:02:52;15.30;99.90
43581;DHT22;29175;51.030;4.606;2022-10-22T01:05:18;15.30;99.90
43581;DHT22;29175;51.030;4.606;2022-10-22T01:07:47;15.30;99.90
43581;DHT22;29175;51.030;4.606;2022-10-22T01:18:22;15.30;99.90
43581;DHT22;29175;51.030;4.606;2022-10-22T01:23:57;15.20;99.90
43581;DHT22;29175;51.030;4.606;2022-10-22T01:26:48;15.30;99.90
43581;DHT22;29175;51.030;4.606;2022-10-22T01:29:42;15.20;99.90
43581;DHT22;29175;51.030;4.606;2022-10-22T01:32:12;15.30;99.90
43581;DHT22;29175;51.030;4.606;2022-10-22T01:34:43;15.40;99.90
43581;DHT22;29175;51.030;4.606;2022-10-22T01:37:11;15.30;99.90
43581;DHT22;29175;51.030;4.606;2022-10-22T01:39:39;15.30;99.90
43581;DHT22;29175;51.030;4.606;2022-10-22T01:42:06;15.30;99.90
43581;DHT22;29175;51.030;4.606;2022-10-22T01:44:34;15.30;99.90
43581;DHT22;29175;51.030;4.606;2022-10-22T02:00:45;15.40;99.90
43581;DHT22;29175;51.030;4.606;2022-10-22T02:03:18;15.40;99.90
43581;DHT22;29175;51.030;4.606;2022-10-22T02:05:52;15.40;99.90
43581;DHT22;29175;51.030;4.606;2022-10-22T02:08:22;15.40;99.90
43581;DHT22;29175;51.030;4.606;2022-10-22T02:10:50;15.40;99.90
43581;DHT22;29175;51.030;4.606;2022-10-22T02:13:24;15.40;99.90
43581;DHT22;29175;51.030;4.606;2022-10-22T02:15:52;15.40;99.90
43581;DHT22;29175;51.030;4.606;2022-10-22T02:18:22;15.40;99.90
43581;DHT22;29175;51.030;4.606;2022-10-22T02:20:49;15.40;99.90
43581;DHT22;29175;51.030;4.606;2022-10-22T02:23:15;15.40;99.90
43581;DHT22;29175;51.030;4.606;2022-10-22T02:25:43;15.40;99.90
43581;DHT22;29175;51.030;4.606;2022-10-22T02:28:22;15.40;99.90
43581;DHT22;29175;51.030;4.606;2022-10-22T02:30:52;15.30;99.90
43581;DHT22;29175;51.030;4.606;2022-10-22T02:33:29;15.30;99.90
43581;DHT22;29175;51.030;4.606;2022-10-22T02:35:57;15.30;99.90
43581;DHT22;29175;51.030;4.606;2022-10-22T02:38:24;15.30;99.90
43581;DHT22;29175;51.030;4.606;2022-10-22T02:40:51;15.20;99.90
43581;DHT22;29175;51.030;4.606;2022-10-22T02:43:17;15.20;99.90
43581;DHT22;29175;51.030;4.606;2022-10-22T02:45:43;15.20;99.90
43581;DHT22;29175;51.030;4.606;2022-10-22T02:48:09;15.20;99.90
43581;DHT22;29175;51.030;4.606;2022-10-22T02:50:35;15.20;99.90
43581;DHT22;29175;51.030;4.606;2022-10-22T02:53:00;15.10;99.90
43581;DHT22;29175;51.030;4.606;2022-10-22T02:55:26;15.20;99.90
43581;DHT22;29175;51.030;4.606;2022-10-22T02:57:52;15.20;99.90
43581;DHT22;29175;51.030;4.606;2022-10-22T03:00:18;15.20;99.90
43581;DHT22;29175;51.030;4.606;2022-10-22T03:02:43;15.20;99.90
43581;DHT22;29175;51.030;4.606;2022-10-22T03:05:09;15.20;99.90
43581;DHT22;29175;51.030;4.606;2022-10-22T03:07:35;15.20;99.90
43581;DHT22;29175;51.030;4.606;2022-10-22T03:10:01;15.30;99.90
43581;DHT22;29175;51.030;4.606;2022-10-22T03:12:26;15.20;99.90
43581;DHT22;29175;51.030;4.606;2022-10-22T03:14:52;15.20;99.90
43581;DHT22;29175;51.030;4.606;2022-10-22T03:17:17;15.20;99.90
43581;DHT22;29175;51.030;4.606;2022-10-22T03:19:43;15.10;99.90
43581;DHT22;29175;51.030;4.606;2022-10-22T03:22:13;15.00;99.90
43581;DHT22;29175;51.030;4.606;2022-10-22T03:24:41;15.00;99.90
43581;DHT22;29175;51.030;4.606;2022-10-22T03:27:09;15.00;99.90
43581;DHT22;29175;51.030;4.606;2022-10-22T03:29:37;14.90;99.90
43581;DHT22;29175;51.030;4.606;2022-10-22T03:32:05;14.90;99.90
43581;DHT22;29175;51.030;4.606;2022-10-22T03:34:30;15.00;99.90
43581;DHT22;29175;51.030;4.606;2022-10-22T03:36:58;15.00;99.90
43581;DHT22;29175;51.030;4.606;2022-10-22T03:39:25;15.00;99.90
43581;DHT22;29175;51.030;4.606;2022-10-22T03:41:51;14.90;99.90
43581;DHT22;29175;51.030;4.606;2022-10-22T03:44:17;14.90;99.90
43581;DHT22;29175;51.030;4.606;2022-10-22T03:46:44;14.90;99.90
43581;DHT22;29175;51.030;4.606;2022-10-22T03:49:09;15.00;99.90
43581;DHT22;29175;51.030;4.606;2022-10-22T03:51:35;15.00;99.90
43581;DHT22;29175;51.030;4.606;2022-10-22T03:54:02;15.10;99.90
43581;DHT22;29175;51.030;4.606;2022-10-22T03:56:28;15.20;99.90
43581;DHT22;29175;51.030;4.606;2022-10-22T03:58:58;15.20;99.90
43581;DHT22;29175;51.030;4.606;2022-10-22T04:01:25;15.20;99.90
43581;DHT22;29175;51.030;4.606;2022-10-22T04:03:51;15.30;99.90
43581;DHT22;29175;51.030;4.606;2022-10-22T04:06:16;15.30;99.90
43581;DHT22;29175;51.030;4.606;2022-10-22T04:08:44;15.30;99.90
43581;DHT22;29175;51.030;4.606;2022-10-22T04:11:10;15.30;99.90
43581;DHT22;29175;51.030;4.606;2022-10-22T04:13:36;15.40;99.90
43581;DHT22;29175;51.030;4.606;2022-10-22T04:16:20;15.60;99.90
43581;DHT22;29175;51.030;4.606;2022-10-22T04:18:47;15.90;99.90
43581;DHT22;29175;51.030;4.606;2022-10-22T04:21:15;16.00;99.90
43581;DHT22;29175;51.030;4.606;2022-10-22T04:23:48;16.00;99.90
43581;DHT22;29175;51.030;4.606;2022-10-22T04:26:15;16.20;99.90
43581;DHT22;29175;51.030;4.606;2022-10-22T04:28:41;16.00;99.90
43581;DHT22;29175;51.030;4.606;2022-10-22T04:31:12;16.00;99.90
43581;DHT22;29175;51.030;4.606;2022-10-22T04:33:38;16.20;99.90
43581;DHT22;29175;51.030;4.606;2022-10-22T04:36:08;16.00;99.90
43581;DHT22;29175;51.030;4.606;2022-10-22T04:38:36;15.80;99.90
43581;DHT22;29175;51.030;4.606;2022-10-22T04:41:19;15.70;99.90
43581;DHT22;29175;51.030;4.606;2022-10-22T04:43:46;15.90;99.90
43581;DHT22;29175;51.030;4.606;2022-10-22T04:46:13;15.70;99.90
43581;DHT22;29175;51.030;4.606;2022-10-22T04:48:40;15.70;99.90
43581;DHT22;29175;51.030;4.606;2022-10-22T04:51:07;15.70;99.90
43581;DHT22;29175;51.030;4.606;2022-10-22T04:53:34;15.60;99.90
43581;DHT22;29175;51.030;4.606;2022-10-22T04:56:19;15.60;99.90
43581;DHT22;29175;51.030;4.606;2022-10-22T04:58:47;15.50;99.90
43581;DHT22;29175;51.030;4.606;2022-10-22T05:01:18;15.40;99.90
43581;DHT22;29175;51.030;4.606;2022-10-22T05:03:45;15.40;99.90
43581;DHT22;29175;51.030;4.606;2022-10-22T05:06:11;15.40;99.90
43581;DHT22;29175;51.030;4.606;2022-10-22T05:08:36;15.40;99.90
43581;DHT22;29175;51.030;4.606;2022-10-22T05:11:21;15.40;99.90
43581;DHT22;29175;51.030;4.606;2022-10-22T05:13:47;15.30;99.90
43581;DHT22;29175;51.030;4.606;2022-10-22T05:16:13;15.40;99.90
43581;DHT22;29175;51.030;4.606;2022-10-22T05:18:41;15.40;99.90
43581;DHT22;29175;51.030;4.606;2022-10-22T05:21:18;15.50;99.90
43581;DHT22;29175;51.030;4.606;2022-10-22T05:23:45;15.40;99.90
43581;DHT22;29175;51.030;4.606;2022-10-22T05:26:13;15.40;99.90
43581;DHT22;29175;51.030;4.606;2022-10-22T05:28:39;15.40;99.90
43581;DHT22;29175;51.030;4.606;2022-10-22T05:31:06;15.60;99.90
43581;DHT22;29175;51.030;4.606;2022-10-22T05:33:32;15.60;99.90
43581;DHT22;29175;51.030;4.606;2022-10-22T05:35:59;15.70;99.90
43581;DHT22;29175;51.030;4.606;2022-10-22T05:38:25;15.60;99.90
43581;DHT22;29175;51.030;4.606;2022-10-22T05:41:12;15.80;99.90
43581;DHT22;29175;51.030;4.606;2022-10-22T05:43:38;15.80;99.90
43581;DHT22;29175;51.030;4.606;2022-10-22T05:46:15;16.00;99.90
43581;DHT22;29175;51.030;4.606;2022-10-22T05:48:41;15.90;99.90
43581;DHT22;29175;51.030;4.606;2022-10-22T05:51:11;16.00;99.90
43581;DHT22;29175;51.030;4.606;2022-10-22T05:53:40;15.90;99.90
43581;DHT22;29175;51.030;4.606;2022-10-22T05:56:08;16.10;99.90
43581;DHT22;29175;51.030;4.606;2022-10-22T05:58:35;16.30;99.90
43581;DHT22;29175;51.030;4.606;2022-10-22T06:01:06;16.30;99.90
43581;DHT22;29175;51.030;4.606;2022-10-22T06:03:32;16.20;99.90
43581;DHT22;29175;51.030;4.606;2022-10-22T06:06:03;16.20;99.90
43581;DHT22;29175;51.030;4.606;2022-10-22T06:08:30;16.10;99.90
43581;DHT22;29175;51.030;4.606;2022-10-22T06:10:56;16.50;99.90
43581;DHT22;29175;51.030;4.606;2022-10-22T06:13:22;16.50;99.90
43581;DHT22;29175;51.030;4.606;2022-10-22T06:15:49;16.70;99.90
43581;DHT22;29175;51.030;4.606;2022-10-22T06:18:14;16.70;99.90
43581;DHT22;29175;51.030;4.606;2022-10-22T06:20:40;16.70;99.90
43581;DHT22;29175;51.030;4.606;2022-10-22T06:23:08;16.50;99.90
43581;DHT22;29175;51.030;4.606;2022-10-22T06:25:33;16.60;99.90
43581;DHT22;29175;51.030;4.606;2022-10-22T06:27:59;16.50;99.90
43581;DHT22;29175;51.030;4.606;2022-10-22T06:30:24;16.60;99.90
43581;DHT22;29175;51.030;4.606;2022-10-22T06:32:50;16.60;99.90
43581;DHT22;29175;51.030;4.606;2022-10-22T06:35:16;16.40;99.90
43581;DHT22;29175;51.030;4.606;2022-10-22T06:37:41;16.50;99.90
43581;DHT22;29175;51.030;4.606;2022-10-22T06:40:07;16.50;99.90
43581;DHT22;29175;51.030;4.606;2022-10-22T06:42:33;16.60;99.90
43581;DHT22;29175;51.030;4.606;2022-10-22T06:44:59;16.80;99.90
43581;DHT22;29175;51.030;4.606;2022-10-22T06:47:24;16.70;99.90
43581;DHT22;29175;51.030;4.606;2022-10-22T06:49:50;16.80;99.90
43581;DHT22;29175;51.030;4.606;2022-10-22T06:52:16;16.70;99.90
43581;DHT22;29175;51.030;4.606;2022-10-22T06:54:41;16.90;99.90
43581;DHT22;29175;51.030;4.606;2022-10-22T06:57:07;16.90;99.90
43581;DHT22;29175;51.030;4.606;2022-10-22T06:59:33;16.90;99.90
43581;DHT22;29175;51.030;4.606;2022-10-22T07:01:58;16.90;99.90
43581;DHT22;29175;51.030;4.606;2022-10-22T07:04:24;16.70;99.90
43581;DHT22;29175;51.030;4.606;2022-10-22T07:06:49;16.80;99.90
43581;DHT22;29175;51.030;4.606;2022-10-22T07:09:15;16.70;99.90
43581;DHT22;29175;51.030;4.606;2022-10-22T07:11:43;16.70;99.90
43581;DHT22;29175;51.030;4.606;2022-10-22T07:14:10;17.00;99.90
43581;DHT22;29175;51.030;4.606;2022-10-22T07:16:36;17.00;99.90
43581;DHT22;29175;51.030;4.606;2022-10-22T07:19:03;17.00;99.90
43581;DHT22;29175;51.030;4.606;2022-10-22T07:21:29;17.20;99.90
43581;DHT22;29175;51.030;4.606;2022-10-22T07:23:55;17.30;99.90
43581;DHT22;29175;51.030;4.606;2022-10-22T07:26:21;17.30;99.90
43581;DHT22;29175;51.030;4.606;2022-10-22T07:28:50;17.20;99.90
43581;DHT22;29175;51.030;4.606;2022-10-22T07:31:16;17.10;99.90
43581;DHT22;29175;51.030;4.606;2022-10-22T07:33:42;17.20;99.90
43581;DHT22;29175;51.030;4.606;2022-10-22T07:36:10;17.60;99.90
43581;DHT22;29175;51.030;4.606;2022-10-22T07:38:45;17.70;99.90
43581;DHT22;29175;51.030;4.606;2022-10-22T07:41:11;17.60;99.90
43581;DHT22;29175;51.030;4.606;2022-10-22T07:43:37;17.60;99.90
43581;DHT22;29175;51.030;4.606;2022-10-22T07:46:03;17.80;99.90
43581;DHT22;29175;51.030;4.606;2022-10-22T07:48:29;17.90;99.90
43581;DHT22;29175;51.030;4.606;2022-10-22T07:50:54;17.70;99.90
43581;DHT22;29175;51.030;4.606;2022-10-22T07:53:21;17.90;99.90
43581;DHT22;29175;51.030;4.606;2022-10-22T07:55:47;18.20;99.90
43581;DHT22;29175;51.030;4.606;2022-10-22T07:58:13;18.20;99.90
43581;DHT22;29175;51.030;4.606;2022-10-22T08:00:39;18.30;99.90
43581;DHT22;29175;51.030;4.606;2022-10-22T08:03:04;18.40;99.90
43581;DHT22;29175;51.030;4.606;2022-10-22T08:05:30;18.50;99.90
43581;DHT22;29175;51.030;4.606;2022-10-22T08:07:56;18.60;99.90
43581;DHT22;29175;51.030;4.606;2022-10-22T08:10:21;18.70;99.90
43581;DHT22;29175;51.030;4.606;2022-10-22T08:12:47;18.90;99.90
43581;DHT22;29175;51.030;4.606;2022-10-22T08:15:12;19.00;99.90
43581;DHT22;29175;51.030;4.606;2022-10-22T08:17:38;18.80;99.90
43581;DHT22;29175;51.030;4.606;2022-10-22T08:20:04;18.80;99.90
43581;DHT22;29175;51.030;4.606;2022-10-22T08:22:30;18.70;99.90
43581;DHT22;29175;51.030;4.606;2022-10-22T08:24:55;18.70;99.90
43581;DHT22;29175;51.030;4.606;2022-10-22T08:27:22;18.60;99.90
43581;DHT22;29175;51.030;4.606;2022-10-22T08:29:47;18.90;99.90
43581;DHT22;29175;51.030;4.606;2022-10-22T08:32:14;18.80;99.90
43581;DHT22;29175;51.030;4.606;2022-10-22T08:34:39;19.10;99.90
43581;DHT22;29175;51.030;4.606;2022-10-22T08:37:05;19.00;99.90
43581;DHT22;29175;51.030;4.606;2022-10-22T08:39:33;18.80;99.90
43581;DHT22;29175;51.030;4.606;2022-10-22T08:42:12;19.00;99.90
43581;DHT22;29175;51.030;4.606;2022-10-22T08:50:02;18.80;99.90
43581;DHT22;29175;51.030;4.606;2022-10-22T08:52:27;18.90;99.90
43581;DHT22;29175;51.030;4.606;2022-10-22T08:54:56;18.70;99.90
43581;DHT22;29175;51.030;4.606;2022-10-22T09:03:14;19.40;99.90
43581;DHT22;29175;51.030;4.606;2022-10-22T09:06:08;19.00;99.90
43581;DHT22;29175;51.030;4.606;2022-10-22T09:08:36;19.00;99.90
43581;DHT22;29175;51.030;4.606;2022-10-22T09:11:27;18.60;99.90
43581;DHT22;29175;51.030;4.606;2022-10-22T09:13:55;18.70;99.90
43581;DHT22;29175;51.030;4.606;2022-10-22T09:26:58;19.40;99.90
43581;DHT22;29175;51.030;4.606;2022-10-22T09:29:32;19.70;99.90
43581;DHT22;29175;51.030;4.606;2022-10-22T09:31:57;19.70;99.90
43581;DHT22;29175;51.030;4.606;2022-10-22T09:34:23;19.50;99.90
43581;DHT22;29175;51.030;4.606;2022-10-22T09:37:07;19.80;99.90
43581;DHT22;29175;51.030;4.606;2022-10-22T09:39:39;19.00;99.90
43581;DHT22;29175;51.030;4.606;2022-10-22T09:42:06;19.40;99.90
43581;DHT22;29175;51.030;4.606;2022-10-22T09:44:34;19.30;99.90
43581;DHT22;29175;51.030;4.606;2022-10-22T09:47:04;19.40;99.90
43581;DHT22;29175;51.030;4.606;2022-10-22T09:49:33;19.60;99.90
43581;DHT22;29175;51.030;4.606;2022-10-22T09:52:00;19.30;99.90
43581;DHT22;29175;51.030;4.606;2022-10-22T09:54:38;19.30;99.90
43581;DHT22;29175;51.030;4.606;2022-10-22T09:57:16;19.50;99.90
43581;DHT22;29175;51.030;4.606;2022-10-22T09:59:44;19.60;99.90
43581;DHT22;29175;51.030;4.606;2022-10-22T10:02:16;19.60;99.90
43581;DHT22;29175;51.030;4.606;2022-10-22T10:04:54;19.50;99.90
43581;DHT22;29175;51.030;4.606;2022-10-22T10:07:26;19.50;99.90
43581;DHT22;29175;51.030;4.606;2022-10-22T10:09:53;19.60;99.90
43581;DHT22;29175;51.030;4.606;2022-10-22T10:12:34;20.00;99.90
43581;DHT22;29175;51.030;4.606;2022-10-22T10:20:15;20.20;99.90
43581;DHT22;29175;51.030;4.606;2022-10-22T10:29:05;19.90;99.90
43581;DHT22;29175;51.030;4.606;2022-10-22T10:34:41;20.10;99.90
43581;DHT22;29175;51.030;4.606;2022-10-22T10:37:21;20.20;99.90
43581;DHT22;29175;51.030;4.606;2022-10-22T10:43:01;19.70;99.90
43581;DHT22;29175;51.030;4.606;2022-10-22T10:45:44;19.80;99.90
43581;DHT22;29175;51.030;4.606;2022-10-22T10:56:48;19.80;99.90
43581;DHT22;29175;51.030;4.606;2022-10-22T11:07:33;20.30;99.90
43581;DHT22;29175;51.030;4.606;2022-10-22T11:12:56;20.40;99.90
43581;DHT22;29175;51.030;4.606;2022-10-22T11:15:32;20.10;99.90
43581;DHT22;29175;51.030;4.606;2022-10-22T11:18:13;19.90;99.90
43581;DHT22;29175;51.030;4.606;2022-10-22T11:20:52;19.90;99.90
43581;DHT22;29175;51.030;4.606;2022-10-22T11:23:41;20.30;99.90
43581;DHT22;29175;51.030;4.606;2022-10-22T11:26:10;20.40;99.90
43581;DHT22;29175;51.030;4.606;2022-10-22T11:28:44;20.50;99.90
43581;DHT22;29175;51.030;4.606;2022-10-22T11:31:16;20.50;99.90
43581;DHT22;29175;51.030;4.606;2022-10-22T11:34:13;20.50;99.90
43581;DHT22;29175;51.030;4.606;2022-10-22T11:36:41;21.00;99.90
43581;DHT22;29175;51.030;4.606;2022-10-22T11:42:08;21.40;99.90
43581;DHT22;29175;51.030;4.606;2022-10-22T11:44:45;21.20;99.90
43581;DHT22;29175;51.030;4.606;2022-10-22T11:47:18;21.00;99.90
43581;DHT22;29175;51.030;4.606;2022-10-22T11:52:40;20.90;99.90
43581;DHT22;29175;51.030;4.606;2022-10-22T11:55:30;21.20;99.90
43581;DHT22;29175;51.030;4.606;2022-10-22T11:57:59;21.50;99.90
43581;DHT22;29175;51.030;4.606;2022-10-22T12:00:32;21.50;99.90
43581;DHT22;29175;51.030;4.606;2022-10-22T12:03:24;21.70;99.90
43581;DHT22;29175;51.030;4.606;2022-10-22T12:08:45;22.20;99.90
43581;DHT22;29175;51.030;4.606;2022-10-22T12:11:48;22.30;99.90
43581;DHT22;29175;51.030;4.606;2022-10-22T12:14:25;22.10;99.90
43581;DHT22;29175;51.030;4.606;2022-10-22T12:17:08;22.00;99.90
43581;DHT22;29175;51.030;4.606;2022-10-22T12:19:38;21.40;99.90
43581;DHT22;29175;51.030;4.606;2022-10-22T12:24:52;20.90;99.90
43581;DHT22;29175;51.030;4.606;2022-10-22T12:27:27;20.90;99.90
43581;DHT22;29175;51.030;4.606;2022-10-22T12:29:59;20.90;99.90
43581;DHT22;29175;51.030;4.606;2022-10-22T12:32:36;21.00;99.90
43581;DHT22;29175;51.030;4.606;2022-10-22T12:35:10;21.00;99.90
43581;DHT22;29175;51.030;4.606;2022-10-22T12:37:37;21.20;99.90
43581;DHT22;29175;51.030;4.606;2022-10-22T12:40:23;21.20;99.90
43581;DHT22;29175;51.030;4.606;2022-10-22T12:42:52;21.20;99.90
43581;DHT22;29175;51.030;4.606;2022-10-22T12:45:18;21.10;99.90
43581;DHT22;29175;51.030;4.606;2022-10-22T12:47:45;21.00;99.90
43581;DHT22;29175;51.030;4.606;2022-10-22T12:50:17;20.80;99.90
43581;DHT22;29175;51.030;4.606;2022-10-22T12:52:43;20.90;99.90
43581;DHT22;29175;51.030;4.606;2022-10-22T12:55:16;20.80;99.90
43581;DHT22;29175;51.030;4.606;2022-10-22T12:57:45;20.70;99.90
43581;DHT22;29175;51.030;4.606;2022-10-22T13:00:24;20.60;99.90
43581;DHT22;29175;51.030;4.606;2022-10-22T13:02:51;20.30;99.90
43581;DHT22;29175;51.030;4.606;2022-10-22T13:05:21;20.20;99.90
43581;DHT22;29175;51.030;4.606;2022-10-22T13:08:02;20.30;99.90
43581;DHT22;29175;51.030;4.606;2022-10-22T13:10:35;20.40;99.90
43581;DHT22;29175;51.030;4.606;2022-10-22T13:13:02;20.40;99.90
43581;DHT22;29175;51.030;4.606;2022-10-22T13:18:19;20.60;99.90
43581;DHT22;29175;51.030;4.606;2022-10-22T13:23:23;21.00;99.90
43581;DHT22;29175;51.030;4.606;2022-10-22T13:26:16;21.10;99.90
43581;DHT22;29175;51.030;4.606;2022-10-22T13:28:52;21.10;99.90
43581;DHT22;29175;51.030;4.606;2022-10-22T13:33:51;21.20;99.90
43581;DHT22;29175;51.030;4.606;2022-10-22T13:36:18;20.80;99.90
43581;DHT22;29175;51.030;4.606;2022-10-22T13:38:43;20.50;99.90
43581;DHT22;29175;51.030;4.606;2022-10-22T13:41:38;20.60;99.90
43581;DHT22;29175;51.030;4.606;2022-10-22T13:44:04;20.70;99.90
43581;DHT22;29175;51.030;4.606;2022-10-22T13:46:30;20.70;99.90
43581;DHT22;29175;51.030;4.606;2022-10-22T13:48:56;21.00;99.90
43581;DHT22;29175;51.030;4.606;2022-10-22T13:51:28;21.10;99.90
43581;DHT22;29175;51.030;4.606;2022-10-22T13:53:56;21.10;99.90
43581;DHT22;29175;51.030;4.606;2022-10-22T13:56:22;20.90;99.90
43581;DHT22;29175;51.030;4.606;2022-10-22T13:58:48;20.90;99.90
43581;DHT22;29175;51.030;4.606;2022-10-22T14:03:46;21.00;99.90
43581;DHT22;29175;51.030;4.606;2022-10-22T14:06:13;21.00;99.90
43581;DHT22;29175;51.030;4.606;2022-10-22T14:08:41;21.10;99.90
43581;DHT22;29175;51.030;4.606;2022-10-22T14:11:11;21.20;99.90
43581;DHT22;29175;51.030;4.606;2022-10-22T14:13:36;21.20;99.90
43581;DHT22;29175;51.030;4.606;2022-10-22T14:16:03;21.30;99.90
43581;DHT22;29175;51.030;4.606;2022-10-22T14:18:29;21.10;99.90
43581;DHT22;29175;51.030;4.606;2022-10-22T14:20:59;21.10;99.90
43581;DHT22;29175;51.030;4.606;2022-10-22T14:23:30;21.10;99.90
43581;DHT22;29175;51.030;4.606;2022-10-22T14:25:57;21.00;99.90
43581;DHT22;29175;51.030;4.606;2022-10-22T14:28:23;21.10;99.90
43581;DHT22;29175;51.030;4.606;2022-10-22T14:30:49;21.10;99.90
43581;DHT22;29175;51.030;4.606;2022-10-22T14:33:24;21.10;99.90
43581;DHT22;29175;51.030;4.606;2022-10-22T14:35:50;21.10;99.90
43581;DHT22;29175;51.030;4.606;2022-10-22T14:38:16;21.00;99.90
43581;DHT22;29175;51.030;4.606;2022-10-22T14:40:43;21.00;99.90
43581;DHT22;29175;51.030;4.606;2022-10-22T14:43:29;21.20;99.90
43581;DHT22;29175;51.030;4.606;2022-10-22T14:45:55;21.40;99.90
43581;DHT22;29175;51.030;4.606;2022-10-22T14:48:22;21.30;99.90
43581;DHT22;29175;51.030;4.606;2022-10-22T14:50:48;21.20;99.90
43581;DHT22;29175;51.030;4.606;2022-10-22T14:53:14;21.10;99.90
43581;DHT22;29175;51.030;4.606;2022-10-22T14:55:42;20.90;99.90
43581;DHT22;29175;51.030;4.606;2022-10-22T14:58:09;20.60;99.90
43581;DHT22;29175;51.030;4.606;2022-10-22T15:00:35;20.50;99.90
43581;DHT22;29175;51.030;4.606;2022-10-22T15:03:02;20.60;99.90
43581;DHT22;29175;51.030;4.606;2022-10-22T15:05:28;20.50;99.90
43581;DHT22;29175;51.030;4.606;2022-10-22T15:07:54;20.60;99.90
43581;DHT22;29175;51.030;4.606;2022-10-22T15:10:19;20.60;99.90
43581;DHT22;29175;51.030;4.606;2022-10-22T15:12:45;20.40;99.90
43581;DHT22;29175;51.030;4.606;2022-10-22T15:15:11;20.30;99.90
43581;DHT22;29175;51.030;4.606;2022-10-22T15:17:36;20.30;99.90
43581;DHT22;29175;51.030;4.606;2022-10-22T15:20:03;20.30;99.90
43581;DHT22;29175;51.030;4.606;2022-10-22T15:22:30;20.30;99.90
43581;DHT22;29175;51.030;4.606;2022-10-22T15:25:03;20.30;99.90
43581;DHT22;29175;51.030;4.606;2022-10-22T15:27:29;20.20;99.90
43581;DHT22;29175;51.030;4.606;2022-10-22T15:29:55;20.10;99.90
43581;DHT22;29175;51.030;4.606;2022-10-22T15:32:24;20.10;99.90
43581;DHT22;29175;51.030;4.606;2022-10-22T15:34:51;20.10;99.90
43581;DHT22;29175;51.030;4.606;2022-10-22T15:37:19;20.00;99.90
43581;DHT22;29175;51.030;4.606;2022-10-22T15:39:45;19.90;99.90
43581;DHT22;29175;51.030;4.606;2022-10-22T15:42:11;19.80;99.90
43581;DHT22;29175;51.030;4.606;2022-10-22T15:44:38;19.80;99.90
43581;DHT22;29175;51.030;4.606;2022-10-22T15:47:05;19.80;99.90
43581;DHT22;29175;51.030;4.606;2022-10-22T15:49:33;19.80;99.90
43581;DHT22;29175;51.030;4.606;2022-10-22T15:51:59;19.80;99.90
43581;DHT22;29175;51.030;4.606;2022-10-22T15:54:26;19.80;99.90
43581;DHT22;29175;51.030;4.606;2022-10-22T15:56:53;19.70;99.90
43581;DHT22;29175;51.030;4.606;2022-10-22T15:59:19;19.70;99.90
43581;DHT22;29175;51.030;4.606;2022-10-22T16:01:45;19.60;99.90
43581;DHT22;29175;51.030;4.606;2022-10-22T16:04:11;19.50;99.90
43581;DHT22;29175;51.030;4.606;2022-10-22T16:06:42;19.50;99.90
43581;DHT22;29175;51.030;4.606;2022-10-22T16:09:13;19.50;99.90
43581;DHT22;29175;51.030;4.606;2022-10-22T16:11:40;19.50;99.90
43581;DHT22;29175;51.030;4.606;2022-10-22T16:14:06;19.40;99.90
43581;DHT22;29175;51.030;4.606;2022-10-22T16:16:35;19.30;99.90
43581;DHT22;29175;51.030;4.606;2022-10-22T16:19:01;19.20;99.90
43581;DHT22;29175;51.030;4.606;2022-10-22T16:21:27;19.20;99.90
43581;DHT22;29175;51.030;4.606;2022-10-22T16:23:53;19.10;99.90
43581;DHT22;29175;51.030;4.606;2022-10-22T16:26:20;19.00;99.90
43581;DHT22;29175;51.030;4.606;2022-10-22T16:28:47;18.90;99.90
43581;DHT22;29175;51.030;4.606;2022-10-22T16:31:14;18.80;99.90
43581;DHT22;29175;51.030;4.606;2022-10-22T16:33:41;18.70;99.90
43581;DHT22;29175;51.030;4.606;2022-10-22T16:36:08;18.70;99.90
43581;DHT22;29175;51.030;4.606;2022-10-22T16:38:34;18.70;99.90
43581;DHT22;29175;51.030;4.606;2022-10-22T16:41:13;18.60;99.90
43581;DHT22;29175;51.030;4.606;2022-10-22T16:43:40;18.60;99.90
43581;DHT22;29175;51.030;4.606;2022-10-22T16:46:06;18.60;99.90
43581;DHT22;29175;51.030;4.606;2022-10-22T16:48:32;18.50;99.90
43581;DHT22;29175;51.030;4.606;2022-10-22T16:51:03;18.40;99.90
43581;DHT22;29175;51.030;4.606;2022-10-22T16:53:29;18.30;99.90
43581;DHT22;29175;51.030;4.606;2022-10-22T16:55:54;18.30;99.90
43581;DHT22;29175;51.030;4.606;2022-10-22T16:58:20;18.20;99.90
43581;DHT22;29175;51.030;4.606;2022-10-22T17:00:46;18.20;99.90
43581;DHT22;29175;51.030;4.606;2022-10-22T17:03:11;18.20;99.90
43581;DHT22;29175;51.030;4.606;2022-10-22T17:05:37;18.20;99.90
43581;DHT22;29175;51.030;4.606;2022-10-22T17:08:03;18.20;99.90
43581;DHT22;29175;51.030;4.606;2022-10-22T17:10:28;18.10;99.90
43581;DHT22;29175;51.030;4.606;2022-10-22T17:12:54;18.00;99.90
43581;DHT22;29175;51.030;4.606;2022-10-22T17:15:20;18.10;99.90
43581;DHT22;29175;51.030;4.606;2022-10-22T17:17:45;18.00;99.90
43581;DHT22;29175;51.030;4.606;2022-10-22T17:20:17;17.90;99.90
43581;DHT22;29175;51.030;4.606;2022-10-22T17:22:43;17.80;99.90
43581;DHT22;29175;51.030;4.606;2022-10-22T17:25:21;17.80;99.90
43581;DHT22;29175;51.030;4.606;2022-10-22T17:27:48;17.80;99.90